createdAt,value
2023-05-19T04:00:47.012Z,6.03
2023-05-19T04:01:47.996Z,6.08
2023-05-19T04:02:48.079Z,6.06
2023-05-19T04:03:47.996Z,6.06
2023-05-19T04:04:48.095Z,6.04
2023-05-19T04:05:47.957Z,6.01
2023-05-19T04:06:47.978Z,6.03
2023-05-19T04:07:47.931Z,6.03
2023-05-19T04:08:47.963Z,6.08
2023-05-19T04:09:47.918Z,6.11
2023-05-19T04:10:47.919Z,6.14
2023-05-19T04:11:47.885Z,6.17
2023-05-19T04:12:47.989Z,6.17
2023-05-19T04:13:47.894Z,6.19
2023-05-19T04:14:47.850Z,6.21
2023-05-19T04:15:47.873Z,6.25
2023-05-19T04:16:47.841Z,6.25
2023-05-19T04:17:47.889Z,6.25
2023-05-19T04:18:47.854Z,6.19
2023-05-19T04:19:47.801Z,6.19
2023-05-19T04:20:47.798Z,6.19
2023-05-19T04:21:47.817Z,6.27
2023-05-19T04:22:47.782Z,6.27
2023-05-19T04:23:47.757Z,6.33
2023-05-19T04:24:47.743Z,6.34
2023-05-19T04:25:47.736Z,6.41
2023-05-19T04:26:47.712Z,6.43
2023-05-19T04:27:47.742Z,6.44
2023-05-19T04:28:47.701Z,6.52
2023-05-19T04:29:47.695Z,6.55
2023-05-19T04:30:47.725Z,6.56
2023-05-19T04:31:47.681Z,6.62
2023-05-19T04:32:47.711Z,6.67
2023-05-19T04:33:47.644Z,6.69
2023-05-19T04:34:47.659Z,6.73
2023-05-19T04:35:47.635Z,6.74
2023-05-19T04:36:47.650Z,6.77
2023-05-19T04:37:47.611Z,6.79
2023-05-19T04:38:47.633Z,6.77
2023-05-19T04:39:47.586Z,6.76
2023-05-19T04:40:47.573Z,6.79
2023-05-19T04:41:47.584Z,6.77
2023-05-19T04:42:47.560Z,6.79
2023-05-19T04:43:47.550Z,6.84
2023-05-19T04:44:47.528Z,6.87
2023-05-19T04:45:47.529Z,6.89
2023-05-19T04:46:47.600Z,6.98
2023-05-19T04:47:47.544Z,7.09
2023-05-19T04:48:47.491Z,7.16
2023-05-19T04:49:47.481Z,7.20
2023-05-19T04:50:47.481Z,7.27
2023-05-19T04:51:47.478Z,7.31
2023-05-19T04:52:47.449Z,7.39
2023-05-19T04:53:47.442Z,7.45
2023-05-19T04:54:47.423Z,7.55
2023-05-19T04:55:47.457Z,7.69
2023-05-19T04:56:47.416Z,7.75
2023-05-19T04:57:47.458Z,7.82
2023-05-19T04:58:47.404Z,7.89
2023-05-19T04:59:47.402Z,7.98
2023-05-19T05:00:47.404Z,8.05
2023-05-19T05:01:47.420Z,8.12
2023-05-19T05:02:47.421Z,8.16
2023-05-19T05:03:47.387Z,8.19
2023-05-19T05:04:47.349Z,8.25
2023-05-19T05:05:47.335Z,8.29
2023-05-19T05:06:47.355Z,8.38
2023-05-19T05:07:47.351Z,8.48
2023-05-19T05:08:47.375Z,8.58
2023-05-19T05:09:47.353Z,8.68
2023-05-19T05:10:47.270Z,8.77
2023-05-19T05:11:47.283Z,8.89
2023-05-19T05:12:47.250Z,8.99
2023-05-19T05:13:47.307Z,9.04
2023-05-19T05:14:47.302Z,9.10
2023-05-19T05:15:47.287Z,9.17
2023-05-19T05:16:47.397Z,9.18
2023-05-19T05:17:47.224Z,9.23
2023-05-19T05:18:47.234Z,9.26
2023-05-19T05:19:47.162Z,9.26
2023-05-19T05:20:47.150Z,9.36
2023-05-19T05:21:47.142Z,9.43
2023-05-19T05:22:47.133Z,9.53
2023-05-19T05:23:47.145Z,9.61
2023-05-19T05:24:47.113Z,9.68
2023-05-19T05:25:47.090Z,9.71
2023-05-19T05:26:47.089Z,9.71
2023-05-19T05:27:47.073Z,9.69
2023-05-19T05:28:47.107Z,9.75
2023-05-19T05:29:47.050Z,9.79
2023-05-19T05:30:47.054Z,9.87
2023-05-19T05:31:47.022Z,9.99
2023-05-19T05:32:47.120Z,10.05
2023-05-19T05:33:47.077Z,10.11
2023-05-19T05:34:46.997Z,10.12
2023-05-19T05:35:47.002Z,10.14
2023-05-19T05:36:46.987Z,10.15
2023-05-19T05:37:47.033Z,10.18
2023-05-19T05:38:46.969Z,10.17
2023-05-19T05:39:46.954Z,10.18
2023-05-19T05:40:46.949Z,10.23
2023-05-19T05:41:46.922Z,10.23
2023-05-19T05:42:46.924Z,10.23
2023-05-19T05:43:46.914Z,10.27
2023-05-19T05:44:46.891Z,10.36
2023-05-19T05:45:46.900Z,10.40
2023-05-19T05:46:46.876Z,10.45
2023-05-19T05:47:47.005Z,10.52
2023-05-19T05:48:46.849Z,10.52
2023-05-19T05:49:46.853Z,10.61
2023-05-19T05:50:46.826Z,10.61
2023-05-19T05:51:54.688Z,10.68
2023-05-19T05:52:46.825Z,10.73
2023-05-19T05:53:46.803Z,10.79
2023-05-19T05:54:46.781Z,10.79
2023-05-19T05:55:46.770Z,10.82
2023-05-19T05:56:46.769Z,10.88
2023-05-19T05:57:46.762Z,10.97
2023-05-19T05:58:46.745Z,11.06
2023-05-19T05:59:46.735Z,11.14
2023-05-19T06:00:46.717Z,11.18
2023-05-19T06:01:46.736Z,11.19
2023-05-19T06:02:46.791Z,11.25
2023-05-19T06:03:46.720Z,11.27
2023-05-19T06:04:46.672Z,11.29
2023-05-19T06:05:46.780Z,11.39
2023-05-19T06:06:46.664Z,11.47
2023-05-19T06:07:46.676Z,11.55
2023-05-19T06:08:46.632Z,11.64
2023-05-19T06:09:46.634Z,11.69
2023-05-19T06:10:47.490Z,11.73
2023-05-19T06:11:46.610Z,11.79
2023-05-19T06:12:46.594Z,11.83
2023-05-19T06:13:46.602Z,11.86
2023-05-19T06:14:46.587Z,11.88
2023-05-19T06:15:46.610Z,11.96
2023-05-19T06:16:46.548Z,11.98
2023-05-19T06:17:46.596Z,12.02
2023-05-19T06:18:46.568Z,12.14
2023-05-19T06:19:46.516Z,12.21
2023-05-19T06:20:46.504Z,12.20
2023-05-19T06:21:46.494Z,12.27
2023-05-19T06:22:46.479Z,12.29
2023-05-19T06:23:46.496Z,12.35
2023-05-19T06:24:46.464Z,12.35
2023-05-19T06:25:46.475Z,12.37
2023-05-19T06:26:46.432Z,12.37
2023-05-19T06:27:46.451Z,12.46
2023-05-19T06:28:46.426Z,12.54
2023-05-19T06:29:46.407Z,12.62
2023-05-19T06:30:46.403Z,12.65
2023-05-19T06:31:46.547Z,12.70
2023-05-19T06:32:46.430Z,12.70
2023-05-19T06:33:46.365Z,12.71
2023-05-19T06:34:46.342Z,12.78
2023-05-19T06:35:46.341Z,12.83
2023-05-19T06:36:46.318Z,12.86
2023-05-19T06:37:46.313Z,12.89
2023-05-19T06:38:46.308Z,12.93
2023-05-19T06:39:46.323Z,12.93
2023-05-19T06:40:46.286Z,13.00
2023-05-19T06:41:46.277Z,13.04
2023-05-19T06:42:46.256Z,13.05
2023-05-19T06:43:46.276Z,13.15
2023-05-19T06:44:46.254Z,13.12
2023-05-19T06:45:46.234Z,13.14
2023-05-19T06:46:46.289Z,13.23
2023-05-19T06:47:46.214Z,13.32
2023-05-19T06:48:46.221Z,13.45
2023-05-19T06:49:46.200Z,13.41
2023-05-19T06:50:46.188Z,13.41
2023-05-19T06:51:46.189Z,13.49
2023-05-19T06:52:46.153Z,13.57
2023-05-19T06:53:46.151Z,13.49
2023-05-19T06:54:46.135Z,13.55
2023-05-19T06:55:58.013Z,13.66
2023-05-19T06:56:46.117Z,13.78
2023-05-19T06:57:46.110Z,13.87
2023-05-19T06:58:46.106Z,13.89
2023-05-19T06:59:46.076Z,13.97
2023-05-19T07:00:46.063Z,14.02
2023-05-19T07:01:46.083Z,14.06
2023-05-19T07:02:46.132Z,14.12
2023-05-19T07:03:46.165Z,14.18
2023-05-19T07:04:46.036Z,14.25
2023-05-19T07:05:46.014Z,14.28
2023-05-19T07:06:46.013Z,14.33
2023-05-19T07:07:46.016Z,14.35
2023-05-19T07:08:46.019Z,14.37
2023-05-19T07:09:45.996Z,14.35
2023-05-19T07:10:45.965Z,14.35
2023-05-19T07:11:45.950Z,14.37
2023-05-19T07:12:45.958Z,14.39
2023-05-19T07:13:45.937Z,14.37
2023-05-19T07:14:45.913Z,14.42
2023-05-19T07:15:45.913Z,14.46
2023-05-19T07:16:45.967Z,14.57
2023-05-19T07:17:45.983Z,14.68
2023-05-19T07:18:45.924Z,14.58
2023-05-19T07:19:45.883Z,14.64
2023-05-19T07:20:45.856Z,14.75
2023-05-19T07:21:45.863Z,14.77
2023-05-19T07:22:45.848Z,14.78
2023-05-19T07:23:45.827Z,14.84
2023-05-19T07:24:45.830Z,14.92
2023-05-19T07:25:45.814Z,14.94
2023-05-19T07:26:45.813Z,14.96
2023-05-19T07:27:45.777Z,15.09
2023-05-19T07:28:45.793Z,15.16
2023-05-19T07:29:45.768Z,15.13
2023-05-19T07:30:45.746Z,15.29
2023-05-19T07:31:45.764Z,15.39
2023-05-19T07:32:45.747Z,15.43
2023-05-19T07:33:45.735Z,15.44
2023-05-19T07:34:45.707Z,15.46
2023-05-19T07:35:45.696Z,15.35
2023-05-19T07:36:45.683Z,15.31
2023-05-19T07:37:45.713Z,15.31
2023-05-19T07:38:45.684Z,15.34
2023-05-19T07:39:45.645Z,15.39
2023-05-19T07:40:45.638Z,15.49
2023-05-19T07:41:45.627Z,15.54
2023-05-19T07:42:45.621Z,15.60
2023-05-19T07:43:45.595Z,15.64
2023-05-19T07:44:45.599Z,15.69
2023-05-19T07:45:45.604Z,15.68
2023-05-19T07:46:45.570Z,15.65
2023-05-19T07:47:45.602Z,15.78
2023-05-19T07:48:45.540Z,15.87
2023-05-19T07:49:45.533Z,15.80
2023-05-19T07:50:45.559Z,15.78
2023-05-19T07:51:45.503Z,15.75
2023-05-19T07:52:45.494Z,15.84
2023-05-19T07:53:45.483Z,15.82
2023-05-19T07:54:45.487Z,15.87
2023-05-19T07:55:45.466Z,15.94
2023-05-19T07:56:45.475Z,15.89
2023-05-19T07:57:45.444Z,16.00
2023-05-19T07:58:45.433Z,16.01
2023-05-19T07:59:45.436Z,15.96
2023-05-19T08:00:45.410Z,16.08
2023-05-19T08:01:45.427Z,16.14
2023-05-19T08:02:45.416Z,16.20
2023-05-19T08:03:45.402Z,16.15
2023-05-19T08:04:45.408Z,16.14
2023-05-19T08:05:45.391Z,16.17
2023-05-19T08:06:45.341Z,16.17
2023-05-19T08:07:45.336Z,16.07
2023-05-19T08:08:45.314Z,16.20
2023-05-19T08:09:45.351Z,16.39
2023-05-19T08:10:45.304Z,16.49
2023-05-19T08:11:45.307Z,16.63
2023-05-19T08:12:45.272Z,16.58
2023-05-19T08:13:45.302Z,16.50
2023-05-19T08:14:45.272Z,16.68
2023-05-19T08:15:45.269Z,16.73
2023-05-19T08:16:45.236Z,16.73
2023-05-19T08:17:45.240Z,16.78
2023-05-19T08:18:45.239Z,16.86
2023-05-19T08:19:45.220Z,17.00
2023-05-19T08:20:45.201Z,16.94
2023-05-19T08:21:45.186Z,16.98
2023-05-19T08:22:45.181Z,17.11
2023-05-19T08:23:45.180Z,17.22
2023-05-19T08:24:45.148Z,17.41
2023-05-19T08:25:45.143Z,17.48
2023-05-19T08:26:45.138Z,17.49
2023-05-19T08:27:45.162Z,17.49
2023-05-19T08:28:45.103Z,17.26
2023-05-19T08:29:45.117Z,17.30
2023-05-19T08:30:45.087Z,17.34
2023-05-19T08:31:45.141Z,17.38
2023-05-19T08:32:45.112Z,17.31
2023-05-19T08:33:45.089Z,17.36
2023-05-19T08:34:45.071Z,17.36
2023-05-19T08:35:45.027Z,17.51
2023-05-19T08:36:45.028Z,17.71
2023-05-19T08:37:45.055Z,17.82
2023-05-19T08:38:45.026Z,17.87
2023-05-19T08:39:45.023Z,17.96
2023-05-19T08:40:44.988Z,17.96
2023-05-19T08:41:45.001Z,18.05
2023-05-19T08:42:44.978Z,17.97
2023-05-19T08:43:44.961Z,18.10
2023-05-19T08:44:44.976Z,18.20
2023-05-19T08:45:44.964Z,18.21
2023-05-19T08:46:44.966Z,18.23
2023-05-19T08:47:44.983Z,18.12
2023-05-19T08:48:44.902Z,18.27
2023-05-19T08:49:44.895Z,18.42
2023-05-19T08:50:44.885Z,18.58
2023-05-19T08:51:44.880Z,18.51
2023-05-19T08:52:46.856Z,18.63
2023-05-19T08:53:44.842Z,18.69
2023-05-19T08:54:44.854Z,18.70
2023-05-19T08:55:44.817Z,18.48
2023-05-19T08:56:44.817Z,18.58
2023-05-19T08:57:44.813Z,18.67
2023-05-19T08:58:44.884Z,18.57
2023-05-19T08:59:44.780Z,18.72
2023-05-19T09:00:44.788Z,18.84
2023-05-19T09:01:44.769Z,19.00
2023-05-19T09:02:55.033Z,19.11
2023-05-19T09:03:44.793Z,19.19
2023-05-19T09:04:44.804Z,19.06
2023-05-19T09:05:44.913Z,19.23
2023-05-19T09:06:44.710Z,19.37
2023-05-19T09:07:44.688Z,19.41
2023-05-19T09:08:44.684Z,19.63
2023-05-19T09:09:44.672Z,19.80
2023-05-19T09:10:44.679Z,20.08
2023-05-19T09:11:44.720Z,20.51
2023-05-19T09:12:44.630Z,21.07
2023-05-19T09:13:44.640Z,21.80
2023-05-19T09:14:44.606Z,22.52
2023-05-19T09:15:44.617Z,22.92
2023-05-19T09:16:44.621Z,23.13
2023-05-19T09:17:44.658Z,23.02
2023-05-19T09:18:44.585Z,22.43
2023-05-19T09:19:44.557Z,22.28
2023-05-19T09:20:44.568Z,22.91
2023-05-19T09:21:44.676Z,23.01
2023-05-19T09:22:44.540Z,23.00
2023-05-19T09:23:44.512Z,23.20
2023-05-19T09:24:44.540Z,22.02
2023-05-19T09:25:44.526Z,22.47
2023-05-19T09:26:44.484Z,23.38
2023-05-19T09:27:44.459Z,24.16
2023-05-19T09:28:44.469Z,24.37
2023-05-19T09:29:44.474Z,23.84
2023-05-19T09:30:44.443Z,24.16
2023-05-19T09:31:44.479Z,24.76
2023-05-19T09:32:44.488Z,25.18
2023-05-19T09:33:46.039Z,24.53
2023-05-19T09:34:44.441Z,24.08
2023-05-19T09:35:44.384Z,23.85
2023-05-19T09:36:44.383Z,23.66
2023-05-19T09:37:44.362Z,24.02
2023-05-19T09:38:44.387Z,23.58
2023-05-19T09:39:44.373Z,23.48
2023-05-19T09:40:44.326Z,23.17
2023-05-19T09:41:44.307Z,23.12
2023-05-19T09:42:44.313Z,23.58
2023-05-19T09:43:44.325Z,24.27
2023-05-19T09:44:44.282Z,23.76
2023-05-19T09:45:44.293Z,24.46
2023-05-19T09:46:44.377Z,24.09
2023-05-19T09:47:44.302Z,23.75
2023-05-19T09:48:44.251Z,23.63
2023-05-19T09:49:44.235Z,23.10
2023-05-19T09:50:44.226Z,23.79
2023-05-19T09:51:44.202Z,23.93
2023-05-19T09:52:44.227Z,23.09
2023-05-19T09:53:44.212Z,23.83
2023-05-19T09:54:44.248Z,24.03
2023-05-19T09:55:44.172Z,22.86
2023-05-19T09:56:44.166Z,22.88
2023-05-19T09:57:44.156Z,23.66
2023-05-19T09:58:44.129Z,24.08
2023-05-19T09:59:44.123Z,24.50
2023-05-19T10:00:44.120Z,24.09
2023-05-19T10:01:44.250Z,24.40
2023-05-19T10:02:44.136Z,25.65
2023-05-19T10:03:44.078Z,25.65
2023-05-19T10:04:44.119Z,25.27
2023-05-19T10:05:44.071Z,25.47
2023-05-19T10:06:44.078Z,24.93
2023-05-19T10:07:44.068Z,24.52
2023-05-19T10:08:44.027Z,24.78
2023-05-19T10:09:44.009Z,24.98
2023-05-19T10:10:44.018Z,25.05
2023-05-19T10:11:44.027Z,24.24
2023-05-19T10:12:43.990Z,24.34
2023-05-19T10:13:43.975Z,25.36
2023-05-19T10:14:43.964Z,24.76
2023-05-19T10:15:57.372Z,24.20
2023-05-19T10:16:43.991Z,24.03
2023-05-19T10:17:43.965Z,24.85
2023-05-19T10:18:43.985Z,24.46
2023-05-19T10:19:43.928Z,23.70
2023-05-19T10:20:43.910Z,24.37
2023-05-19T10:21:43.912Z,25.51
2023-05-19T10:22:43.905Z,26.32
2023-05-19T10:23:43.866Z,25.85
2023-05-19T10:24:43.874Z,25.57
2023-05-19T10:25:43.870Z,26.15
2023-05-19T10:26:43.837Z,26.10
2023-05-19T10:27:43.821Z,25.60
2023-05-19T10:28:43.812Z,25.61
2023-05-19T10:29:43.803Z,25.85
2023-05-19T10:30:43.812Z,24.77
2023-05-19T10:31:43.804Z,24.47
2023-05-19T10:32:43.781Z,24.50
2023-05-19T10:33:43.772Z,24.25
2023-05-19T10:34:43.764Z,23.65
2023-05-19T10:35:45.321Z,22.70
2023-05-19T10:36:43.731Z,23.38
2023-05-19T10:37:43.725Z,24.28
2023-05-19T10:38:43.715Z,25.50
2023-05-19T10:39:43.718Z,25.77
2023-05-19T10:40:43.688Z,26.39
2023-05-19T10:41:44.998Z,26.82
2023-05-19T10:42:43.670Z,26.43
2023-05-19T10:43:43.651Z,26.62
2023-05-19T10:44:43.659Z,26.20
2023-05-19T10:45:43.628Z,26.13
2023-05-19T10:46:43.678Z,24.78
2023-05-19T10:47:43.663Z,24.06
2023-05-19T10:48:43.616Z,24.21
2023-05-19T10:49:43.596Z,24.91
2023-05-19T10:50:43.580Z,25.17
2023-05-19T10:51:43.569Z,25.62
2023-05-19T10:52:43.551Z,25.21
2023-05-19T10:53:43.561Z,25.42
2023-05-19T10:54:43.758Z,26.02
2023-05-19T10:55:43.530Z,26.12
2023-05-19T10:56:43.520Z,26.70
2023-05-19T10:57:43.504Z,27.22
2023-05-19T10:58:43.557Z,27.17
2023-05-19T10:59:43.489Z,27.10
2023-05-19T11:00:43.490Z,26.30
2023-05-19T11:01:43.529Z,25.87
2023-05-19T11:02:43.514Z,25.43
2023-05-19T11:03:43.460Z,25.33
2023-05-19T11:04:43.436Z,25.20
2023-05-19T11:05:43.419Z,25.33
2023-05-19T11:06:43.405Z,25.30
2023-05-19T11:07:43.453Z,25.69
2023-05-19T11:08:43.395Z,25.28
2023-05-19T11:09:43.386Z,23.31
2023-05-19T11:10:43.368Z,23.46
2023-05-19T11:11:43.349Z,23.95
2023-05-19T11:12:43.384Z,24.83
2023-05-19T11:13:43.339Z,25.72
2023-05-19T11:14:43.321Z,26.62
2023-05-19T11:15:43.317Z,26.58
2023-05-19T11:16:43.379Z,26.07
2023-05-19T11:17:43.370Z,25.32
2023-05-19T11:18:43.336Z,24.13
2023-05-19T11:19:43.288Z,24.45
2023-05-19T11:20:43.297Z,24.39
2023-05-19T11:21:43.277Z,25.35
2023-05-19T11:22:43.253Z,26.55
2023-05-19T11:23:43.268Z,27.50
2023-05-19T11:24:43.224Z,27.66
2023-05-19T11:25:43.200Z,26.69
2023-05-19T11:26:43.283Z,26.81
2023-05-19T11:27:43.177Z,27.31
2023-05-19T11:28:43.172Z,27.51
2023-05-19T11:29:43.164Z,27.14
2023-05-19T11:30:43.181Z,25.79
2023-05-19T11:31:43.223Z,26.23
2023-05-19T11:32:43.239Z,27.13
2023-05-19T11:33:43.122Z,27.28
2023-05-19T11:34:43.110Z,27.59
2023-05-19T11:35:43.110Z,28.17
2023-05-19T11:36:43.145Z,27.39
2023-05-19T11:37:43.088Z,27.41
2023-05-19T11:38:43.082Z,27.54
2023-05-19T11:39:43.059Z,27.10
2023-05-19T11:40:43.072Z,26.70
2023-05-19T11:41:43.026Z,26.23
2023-05-19T11:42:43.024Z,26.84
2023-05-19T11:43:43.012Z,27.57
2023-05-19T11:44:43.029Z,27.27
2023-05-19T11:45:42.988Z,26.26
2023-05-19T11:46:43.045Z,25.85
2023-05-19T11:48:00.221Z,25.91
2023-05-19T11:48:42.999Z,26.60
2023-05-19T11:49:42.978Z,27.21
2023-05-19T11:50:42.953Z,27.19
2023-05-19T11:51:42.922Z,27.19
2023-05-19T11:52:42.913Z,27.03
2023-05-19T11:53:42.900Z,27.32
2023-05-19T11:54:42.950Z,26.67
2023-05-19T11:55:42.888Z,25.21
2023-05-19T11:56:42.873Z,24.15
2023-05-19T11:57:47.043Z,22.77
2023-05-19T11:58:42.907Z,22.28
2023-05-19T11:59:42.859Z,22.24
2023-05-19T12:00:42.844Z,23.55
2023-05-19T12:01:42.818Z,24.73
2023-05-19T12:02:42.888Z,25.47
2023-05-19T12:03:42.897Z,25.51
2023-05-19T12:04:42.847Z,26.28
2023-05-19T12:05:43.669Z,25.75
2023-05-19T12:06:42.812Z,24.90
2023-05-19T12:07:42.750Z,24.24
2023-05-19T12:08:42.803Z,23.94
2023-05-19T12:09:42.726Z,23.43
2023-05-19T12:10:42.726Z,22.80
2023-05-19T12:11:42.709Z,22.00
2023-05-19T12:12:42.704Z,21.84
2023-05-19T12:13:42.705Z,22.21
2023-05-19T12:14:42.677Z,22.54
2023-05-19T12:15:42.666Z,22.09
2023-05-19T12:16:42.720Z,22.54
2023-05-19T12:17:42.709Z,23.25
2023-05-19T12:18:42.741Z,23.40
2023-05-19T12:19:42.631Z,23.76
2023-05-19T12:20:42.616Z,23.75
2023-05-19T12:21:42.637Z,23.75
2023-05-19T12:22:42.603Z,23.87
2023-05-19T12:23:42.598Z,23.80
2023-05-19T12:24:42.574Z,23.60
2023-05-19T12:25:42.554Z,23.80
2023-05-19T12:26:42.595Z,24.31
2023-05-19T12:27:42.556Z,24.81
2023-05-19T12:28:42.531Z,25.06
2023-05-19T12:29:42.520Z,24.78
2023-05-19T12:30:42.509Z,25.00
2023-05-19T12:31:42.555Z,24.65
2023-05-19T12:32:42.561Z,24.09
2023-05-19T12:33:42.481Z,23.91
2023-05-19T12:34:42.473Z,23.76
2023-05-19T12:35:42.452Z,23.57
2023-05-19T12:36:42.482Z,23.53
2023-05-19T12:37:42.434Z,23.51
2023-05-19T12:38:42.439Z,23.50
2023-05-19T12:39:42.419Z,23.48
2023-05-19T12:40:42.418Z,23.68
2023-05-19T12:41:42.401Z,23.93
2023-05-19T12:42:42.382Z,24.08
2023-05-19T12:43:42.370Z,23.84
2023-05-19T12:44:42.381Z,23.58
2023-05-19T12:45:42.441Z,22.94
2023-05-19T12:46:42.349Z,22.77
2023-05-19T12:47:42.384Z,23.48
2023-05-19T12:48:42.323Z,23.58
2023-05-19T12:49:42.347Z,23.91
2023-05-19T12:50:42.309Z,24.09
2023-05-19T12:51:42.316Z,24.49
2023-05-19T12:52:42.270Z,25.06
2023-05-19T12:53:42.285Z,24.73
2023-05-19T12:54:42.340Z,24.62
2023-05-19T12:55:42.285Z,23.68
2023-05-19T12:56:42.228Z,22.62
2023-05-19T12:57:42.237Z,22.30
2023-05-19T12:58:42.233Z,22.47
2023-05-19T12:59:42.207Z,22.49
2023-05-19T13:00:42.495Z,22.60
2023-05-19T13:01:42.244Z,22.55
2023-05-19T13:02:42.263Z,22.37
2023-05-19T13:03:42.301Z,22.40
2023-05-19T13:04:42.193Z,22.36
2023-05-19T13:05:42.142Z,22.61
2023-05-19T13:06:42.165Z,22.51
2023-05-19T13:07:42.135Z,22.92
2023-05-19T13:08:42.112Z,22.97
2023-05-19T13:09:42.119Z,22.95
2023-05-19T13:10:42.081Z,22.55
2023-05-19T13:11:42.077Z,22.77
2023-05-19T13:12:42.095Z,23.00
2023-05-19T13:13:42.061Z,23.10
2023-05-19T13:14:42.043Z,22.88
2023-05-19T13:15:42.045Z,22.75
2023-05-19T13:16:42.051Z,22.79
2023-05-19T13:17:42.041Z,22.43
2023-05-19T13:18:42.101Z,22.18
2023-05-19T13:19:42.094Z,21.68
2023-05-19T13:20:41.985Z,21.67
2023-05-19T13:21:41.964Z,21.82
2023-05-19T13:22:41.962Z,22.02
2023-05-19T13:23:41.981Z,22.22
2023-05-19T13:24:41.940Z,22.45
2023-05-19T13:25:41.942Z,22.43
2023-05-19T13:26:41.917Z,22.45
2023-05-19T13:27:41.908Z,22.51
2023-05-19T13:28:41.926Z,22.68
2023-05-19T13:29:41.890Z,22.85
2023-05-19T13:30:42.039Z,22.68
2023-05-19T13:31:41.946Z,22.52
2023-05-19T13:32:41.861Z,22.42
2023-05-19T13:33:41.853Z,22.33
2023-05-19T13:34:41.832Z,22.06
2023-05-19T13:35:41.866Z,21.96
2023-05-19T13:36:41.881Z,21.92
2023-05-19T13:37:41.995Z,22.21
2023-05-19T13:38:41.790Z,22.33
2023-05-19T13:39:41.788Z,22.43
2023-05-19T13:40:41.788Z,22.52
2023-05-19T13:41:41.753Z,22.54
2023-05-19T13:42:41.741Z,22.52
2023-05-19T13:43:41.738Z,22.51
2023-05-19T13:44:41.742Z,22.46
2023-05-19T13:45:41.715Z,22.35
2023-05-19T13:46:45.604Z,22.27
2023-05-19T13:47:41.767Z,22.09
2023-05-19T13:48:41.680Z,22.06
2023-05-19T13:49:41.698Z,22.06
2023-05-19T13:50:41.659Z,22.09
2023-05-19T13:51:41.673Z,21.86
2023-05-19T13:52:41.642Z,21.69
2023-05-19T13:53:41.661Z,21.67
2023-05-19T13:54:41.615Z,21.71
2023-05-19T13:55:41.617Z,21.83
2023-05-19T13:56:41.609Z,21.92
2023-05-19T13:57:44.027Z,22.14
2023-05-19T13:58:41.573Z,22.25
2023-05-19T13:59:53.323Z,22.15
2023-05-19T14:00:41.550Z,22.31
2023-05-19T14:01:41.606Z,22.28
2023-05-19T14:02:41.625Z,22.45
2023-05-19T14:03:41.614Z,22.65
2023-05-19T14:04:41.515Z,22.31
2023-05-19T14:05:41.526Z,22.27
2023-05-19T14:06:41.515Z,22.46
2023-05-19T14:07:41.489Z,22.45
2023-05-19T14:08:41.474Z,22.22
2023-05-19T14:09:41.471Z,22.05
2023-05-19T14:10:41.493Z,21.96
2023-05-19T14:11:41.433Z,21.77
2023-05-19T14:13:08.048Z,21.31
2023-05-19T14:13:43.299Z,21.22
2023-05-19T14:14:41.406Z,20.95
2023-05-19T14:15:41.502Z,20.79
2023-05-19T14:16:41.395Z,20.54
2023-05-19T14:17:41.571Z,20.38
2023-05-19T14:18:41.410Z,20.29
2023-05-19T14:19:41.393Z,20.11
2023-05-19T14:20:41.373Z,20.18
2023-05-19T14:21:41.330Z,20.32
2023-05-19T14:22:41.368Z,20.57
2023-05-19T14:23:41.321Z,20.74
2023-05-19T14:24:41.295Z,20.89
2023-05-19T14:25:41.303Z,21.06
2023-05-19T14:26:41.332Z,21.13
2023-05-19T14:27:41.270Z,21.03
2023-05-19T14:28:41.245Z,21.14
2023-05-19T14:29:41.343Z,21.17
2023-05-19T14:30:41.226Z,21.31
2023-05-19T14:31:41.253Z,21.44
2023-05-19T14:32:41.227Z,21.65
2023-05-19T14:33:41.215Z,21.43
2023-05-19T14:34:41.202Z,21.47
2023-05-19T14:35:41.167Z,21.58
2023-05-19T14:36:41.158Z,21.74
2023-05-19T14:37:41.148Z,21.83
2023-05-19T14:38:41.184Z,21.79
2023-05-19T14:39:41.157Z,21.44
2023-05-19T14:40:41.113Z,21.38
2023-05-19T14:41:41.104Z,21.06
2023-05-19T14:42:41.099Z,20.94
2023-05-19T14:43:41.109Z,20.77
2023-05-19T14:44:41.086Z,20.57
2023-05-19T14:45:41.064Z,20.35
2023-05-19T14:46:41.108Z,20.31
2023-05-19T14:47:41.072Z,20.11
2023-05-19T14:48:41.081Z,19.99
2023-05-19T14:49:41.030Z,20.02
2023-05-19T14:50:41.009Z,19.88
2023-05-19T14:51:41.000Z,19.91
2023-05-19T14:52:41.060Z,19.92
2023-05-19T14:53:41.015Z,20.05
2023-05-19T14:54:40.982Z,20.29
2023-05-19T14:55:40.965Z,20.61
2023-05-19T14:56:41.042Z,20.92
2023-05-19T14:57:40.995Z,21.22
2023-05-19T14:58:40.933Z,21.50
2023-05-19T14:59:40.904Z,21.72
2023-05-19T15:00:40.909Z,21.86
2023-05-19T15:01:41.030Z,21.80
2023-05-19T15:02:40.916Z,21.77
2023-05-19T15:03:40.882Z,21.69
2023-05-19T15:04:40.847Z,21.59
2023-05-19T15:05:40.847Z,21.50
2023-05-19T15:06:40.852Z,21.32
2023-05-19T15:07:40.866Z,21.14
2023-05-19T15:08:40.836Z,20.95
2023-05-19T15:09:40.807Z,20.77
2023-05-19T15:10:40.782Z,20.66
2023-05-19T15:11:40.821Z,20.62
2023-05-19T15:12:40.777Z,20.59
2023-05-19T15:13:40.766Z,20.42
2023-05-19T15:14:40.750Z,20.33
2023-05-19T15:15:40.738Z,20.38
2023-05-19T15:16:40.789Z,20.29
2023-05-19T15:17:40.747Z,20.20
2023-05-19T15:18:40.788Z,20.21
2023-05-19T15:19:40.692Z,20.31
2023-05-19T15:20:40.676Z,20.47
2023-05-19T15:21:40.699Z,20.47
2023-05-19T15:22:40.653Z,20.47
2023-05-19T15:23:40.657Z,20.58
2023-05-19T15:24:40.632Z,20.72
2023-05-19T15:25:40.665Z,20.64
2023-05-19T15:26:40.636Z,20.72
2023-05-19T15:27:40.612Z,20.82
2023-05-19T15:28:40.684Z,20.94
2023-05-19T15:29:40.591Z,20.95
2023-05-19T15:30:40.627Z,20.97
2023-05-19T15:31:40.703Z,21.07
2023-05-19T15:32:40.563Z,21.09
2023-05-19T15:33:40.534Z,21.19
2023-05-19T15:34:40.529Z,21.24
2023-05-19T15:35:40.542Z,21.38
2023-05-19T15:36:40.502Z,21.56
2023-05-19T15:37:40.511Z,21.54
2023-05-19T15:38:40.505Z,21.56
2023-05-19T15:39:40.502Z,21.61
2023-05-19T15:40:40.465Z,21.47
2023-05-19T15:41:40.433Z,21.62
2023-05-19T15:42:40.429Z,21.71
2023-05-19T15:43:40.419Z,21.65
2023-05-19T15:44:40.458Z,21.43
2023-05-19T15:45:40.399Z,21.12
2023-05-19T15:46:40.430Z,20.62
2023-05-19T15:47:40.403Z,20.54
2023-05-19T15:48:40.359Z,20.67
2023-05-19T15:49:40.398Z,20.77
2023-05-19T15:50:40.348Z,20.87
2023-05-19T15:51:40.350Z,21.01
2023-05-19T15:52:40.317Z,21.07
2023-05-19T15:53:40.336Z,21.01
2023-05-19T15:54:40.297Z,20.94
2023-05-19T15:55:40.290Z,20.95
2023-05-19T15:56:40.275Z,20.97
2023-05-19T15:57:40.273Z,20.69
2023-05-19T15:58:40.288Z,20.70
2023-05-19T15:59:40.246Z,20.82
2023-05-19T16:00:40.231Z,20.87
2023-05-19T16:01:40.243Z,20.82
2023-05-19T16:02:40.283Z,20.85
2023-05-19T16:03:40.402Z,20.91
2023-05-19T16:04:40.187Z,20.79
2023-05-19T16:05:40.184Z,20.87
2023-05-19T16:06:40.162Z,20.92
2023-05-19T16:07:40.182Z,20.94
2023-05-19T16:08:40.170Z,20.95
2023-05-19T16:09:40.129Z,20.95
2023-05-19T16:10:40.128Z,20.92
2023-05-19T16:11:40.120Z,20.95
2023-05-19T16:12:40.110Z,20.99
2023-05-19T16:13:40.093Z,20.92
2023-05-19T16:14:40.085Z,20.94
2023-05-19T16:15:40.081Z,20.82
2023-05-19T16:16:40.170Z,20.84
2023-05-19T16:17:40.081Z,20.84
2023-05-19T16:18:40.077Z,20.80
2023-05-19T16:19:40.041Z,20.79
2023-05-19T16:20:40.009Z,20.67
2023-05-19T16:21:40.166Z,20.61
2023-05-19T16:22:40.015Z,20.61
2023-05-19T16:23:40.026Z,20.52
2023-05-19T16:24:39.974Z,20.57
2023-05-19T16:25:39.970Z,20.61
2023-05-19T16:26:39.972Z,20.64
2023-05-19T16:27:39.978Z,20.51
2023-05-19T16:28:39.924Z,20.55
2023-05-19T16:29:39.914Z,20.66
2023-05-19T16:30:39.905Z,20.76
2023-05-19T16:31:39.929Z,20.82
2023-05-19T16:32:39.941Z,20.85
2023-05-19T16:33:39.884Z,20.82
2023-05-19T16:34:39.880Z,20.80
2023-05-19T16:35:39.898Z,20.82
2023-05-19T16:36:39.844Z,20.82
2023-05-19T16:37:39.834Z,20.77
2023-05-19T16:38:39.817Z,20.76
2023-05-19T16:39:39.804Z,20.76
2023-05-19T16:40:39.787Z,20.85
2023-05-19T16:41:39.830Z,20.82
2023-05-19T16:42:39.767Z,20.88
2023-05-19T16:43:39.772Z,20.94
2023-05-19T16:44:39.736Z,20.94
2023-05-19T16:45:39.777Z,20.94
2023-05-19T16:46:39.732Z,20.91
2023-05-19T16:47:39.812Z,20.88
2023-05-19T16:48:39.698Z,20.95
2023-05-19T16:49:39.705Z,20.91
2023-05-19T16:50:39.709Z,20.84
2023-05-19T16:51:39.681Z,20.95
2023-05-19T16:52:39.668Z,20.98
2023-05-19T16:53:39.660Z,20.98
2023-05-19T16:54:39.651Z,20.91
2023-05-19T16:55:39.636Z,20.69